TimeEST,TemperatureF,Dew PointF,Humidity,Sea Level PressureIn,VisibilityMPH,Wind Direction,Wind SpeedMPH,Gust SpeedMPH,PrecipitationIn,Events,Conditions,WindDirDegrees,DateUTC
12:15 AM,39.2,31.6,74,30.44,10.0,Calm,Calm,-,N/A,,Clear,0,2013-01-11 05:15:00
12:35 AM,38.5,31.5,76,30.44,10.0,Calm,Calm,-,N/A,,Clear,0,2013-01-11 05:35:00
12:55 AM,36.9,30.9,79,30.44,10.0,Calm,Calm,-,N/A,,Clear,0,2013-01-11 05:55:00
1:15 AM,36.3,30.9,81,30.44,10.0,Calm,Calm,-,N/A,,Mostly Cloudy,0,2013-01-11 06:15:00
1:35 AM,39.2,32.2,76,30.43,10.0,Calm,Calm,-,N/A,,Overcast,0,2013-01-11 06:35:00
1:55 AM,39.6,32.5,76,30.43,10.0,Calm,Calm,-,N/A,,Mostly Cloudy,0,2013-01-11 06:55:00
2:15 AM,43.3,30.4,60,30.43,10.0,SSE,3.5,-,N/A,,Mostly Cloudy,150,2013-01-11 07:15:00
2:35 AM,42.8,30.4,62,30.43,10.0,SSW,3.5,-,N/A,,Mostly Cloudy,210,2013-01-11 07:35:00
2:55 AM,45.3,29.1,53,30.43,10.0,SSE,3.5,-,N/A,,Scattered Clouds,160,2013-01-11 07:55:00
3:15 AM,44.2,28.9,55,30.41,10.0,Calm,Calm,-,N/A,,Scattered Clouds,0,2013-01-11 08:15:00
3:35 AM,45.9,29.3,52,30.42,10.0,SSE,3.5,-,N/A,,Mostly Cloudy,160,2013-01-11 08:35:00
3:55 AM,45.5,30.2,55,30.40,10.0,Calm,Calm,-,N/A,,Overcast,0,2013-01-11 08:55:00
4:15 AM,45.9,28.4,51,30.40,10.0,Calm,Calm,-,N/A,,Overcast,0,2013-01-11 09:15:00
4:35 AM,45.3,29.8,55,30.41,10.0,South,3.5,-,N/A,,Overcast,170,2013-01-11 09:35:00
4:55 AM,45.5,28.8,52,30.40,10.0,Calm,Calm,-,N/A,,Mostly Cloudy,0,2013-01-11 09:55:00
5:15 AM,44.8,28.6,53,30.40,10.0,SSE,3.5,-,N/A,,Overcast,150,2013-01-11 10:15:00
5:35 AM,45.1,26.4,48,30.39,10.0,SSE,5.8,-,N/A,,Overcast,160,2013-01-11 10:35:00
5:55 AM,44.4,26.2,49,30.38,10.0,SSE,8.1,-,N/A,,Overcast,160,2013-01-11 10:55:00
6:15 AM,44.6,25.7,48,30.38,10.0,SSE,9.2,-,N/A,,Overcast,160,2013-01-11 11:15:00
6:55 AM,44.8,26.6,49,30.37,10.0,SW,6.9,-,N/A,,Overcast,220,2013-01-11 11:55:00
7:15 AM,44.8,26.6,49,30.36,10.0,SSW,3.5,-,N/A,,Overcast,200,2013-01-11 12:15:00
7:35 AM,45.1,26.4,48,30.36,10.0,South,6.9,-,N/A,,Overcast,170,2013-01-11 12:35:00
7:55 AM,45.5,26.6,48,30.37,10.0,South,3.5,-,N/A,,Overcast,190,2013-01-11 12:55:00
8:15 AM,45.7,26.2,47,30.37,10.0,SSW,8.1,-,N/A,,Overcast,210,2013-01-11 13:15:00
8:35 AM,45.7,26.4,47,30.36,10.0,South,6.9,-,N/A,,Overcast,190,2013-01-11 13:35:00
8:55 AM,45.5,27.1,49,30.37,10.0,SSW,8.1,-,N/A,,Overcast,200,2013-01-11 13:55:00
9:15 AM,45.5,29.5,54,30.36,10.0,SSW,4.6,-,N/A,Rain,Light Rain,200,2013-01-11 14:15:00
9:35 AM,45.9,30.7,56,30.35,10.0,SSW,5.8,-,N/A,Rain,Light Rain,200,2013-01-11 14:35:00
9:55 AM,45.7,32.7,61,30.33,10.0,South,8.1,-,N/A,,Drizzle,180,2013-01-11 14:55:00
10:35 AM,45.0,36.7,73,30.32,10.0,SW,9.2,-,N/A,,Light Drizzle,220,2013-01-11 15:35:00
10:55 AM,45.5,37.4,73,30.31,10.0,SW,6.9,-,N/A,,Overcast,220,2013-01-11 15:55:00
11:15 AM,45.7,36.5,70,30.29,10.0,South,6.9,-,N/A,,Overcast,190,2013-01-11 16:15:00
11:35 AM,46.0,36.3,69,30.27,10.0,SW,6.9,-,N/A,,Drizzle,230,2013-01-11 16:35:00
11:55 AM,46.6,36.9,69,30.25,10.0,SW,6.9,-,N/A,,Overcast,220,2013-01-11 16:55:00
12:35 PM,47.7,37.6,68,30.21,10.0,SSW,10.4,16.1,N/A,,Overcast,200,2013-01-11 17:35:00
12:55 PM,47.3,38.1,70,30.20,10.0,SSW,6.9,-,N/A,,Overcast,200,2013-01-11 17:55:00
1:15 PM,47.5,38.7,71,30.19,10.0,SSW,8.1,-,N/A,,Overcast,210,2013-01-11 18:15:00
1:35 PM,47.5,38.8,72,30.18,10.0,SSW,6.9,-,N/A,,Overcast,200,2013-01-11 18:35:00
1:55 PM,47.3,39.2,73,30.18,10.0,SW,5.8,-,N/A,,Overcast,220,2013-01-11 18:55:00
2:15 PM,48.2,39.4,72,30.17,10.0,SW,8.1,-,N/A,,Overcast,230,2013-01-11 19:15:00
2:35 PM,47.8,40.1,75,30.16,10.0,SW,6.9,-,N/A,,Overcast,230,2013-01-11 19:35:00
2:55 PM,47.5,41.4,79,30.16,10.0,SSW,5.8,-,N/A,,Drizzle,200,2013-01-11 19:55:00
3:15 PM,47.3,41.0,79,30.15,10.0,SSW,5.8,-,N/A,,Overcast,210,2013-01-11 20:15:00
3:35 PM,47.7,41.2,78,30.15,10.0,SW,4.6,-,N/A,,Overcast,220,2013-01-11 20:35:00
3:55 PM,47.3,41.0,79,30.14,10.0,SSW,4.6,-,N/A,,Overcast,200,2013-01-11 20:55:00
4:15 PM,47.5,41.7,80,30.14,10.0,SSW,3.5,-,N/A,,Overcast,200,2013-01-11 21:15:00
4:35 PM,47.5,41.9,81,30.13,10.0,South,4.6,-,N/A,,Overcast,190,2013-01-11 21:35:00
4:55 PM,47.5,42.1,82,30.13,10.0,South,3.5,-,N/A,,Overcast,190,2013-01-11 21:55:00
5:15 PM,47.5,42.3,82,30.13,10.0,Calm,Calm,-,N/A,,Overcast,0,2013-01-11 22:15:00
5:35 PM,47.3,42.3,83,30.12,10.0,SSE,3.5,-,N/A,,Overcast,160,2013-01-11 22:35:00
5:55 PM,47.7,42.4,82,30.12,10.0,SSE,3.5,-,N/A,,Overcast,150,2013-01-11 22:55:00
6:15 PM,46.6,41.9,84,30.11,10.0,South,4.6,-,N/A,,Overcast,180,2013-01-11 23:15:00
6:35 PM,45.9,41.7,85,30.12,10.0,Calm,Calm,-,N/A,,Overcast,0,2013-01-11 23:35:00
6:55 PM,46.2,42.1,85,30.12,10.0,Calm,Calm,-,N/A,,Mostly Cloudy,0,2013-01-11 23:55:00
7:15 PM,45.9,42.3,87,30.11,10.0,South,3.5,-,N/A,,Scattered Clouds,190,2013-01-12 00:15:00
7:35 PM,46.4,42.6,87,30.11,10.0,South,3.5,-,N/A,,Clear,180,2013-01-12 00:35:00
7:55 PM,46.8,42.8,86,30.11,10.0,SSW,3.5,-,N/A,,Clear,210,2013-01-12 00:55:00
8:15 PM,45.7,42.6,89,30.10,10.0,SSW,4.6,-,N/A,,Clear,200,2013-01-12 01:15:00
8:35 PM,45.5,42.6,90,30.10,10.0,South,6.9,-,N/A,,Clear,170,2013-01-12 01:35:00
8:55 PM,46.9,44.1,90,30.10,10.0,South,5.8,-,N/A,,Clear,190,2013-01-12 01:55:00
9:15 PM,47.3,44.4,90,30.10,10.0,Calm,Calm,-,N/A,,Mostly Cloudy,0,2013-01-12 02:15:00
9:35 PM,47.5,44.6,90,30.10,10.0,SSE,3.5,-,N/A,,Overcast,160,2013-01-12 02:35:00
9:55 PM,47.5,44.8,90,30.11,10.0,South,3.5,-,N/A,,Overcast,170,2013-01-12 02:55:00
10:15 PM,47.8,45.3,91,30.10,7.0,SSE,3.5,-,N/A,,Mostly Cloudy,160,2013-01-12 03:15:00
10:35 PM,46.6,44.2,92,30.11,7.0,Calm,Calm,-,N/A,,Mostly Cloudy,0,2013-01-12 03:35:00
10:55 PM,47.8,45.9,93,30.11,5.0,Calm,Calm,-,N/A,,Scattered Clouds,0,2013-01-12 03:55:00
11:15 PM,45.3,43.5,93,30.10,0.8,Calm,Calm,-,N/A,,Scattered Clouds,0,2013-01-12 04:15:00
11:35 PM,46.4,45.0,95,30.11,1.0,Calm,Calm,-,N/A,,Mist,0,2013-01-12 04:35:00
11:55 PM,44.2,42.6,94,30.10,0.5,Calm,Calm,-,N/A,Fog,Fog,0,2013-01-12 04:55:00